sensor_id;sensor_type;location;lat;lon;timestamp;temperature;humidity
11639;DHT22;5875;35.940;126.892;2023-02-11T00:01:09;3.30;99.90
11639;DHT22;5875;35.940;126.892;2023-02-11T00:03:37;3.50;99.90
11639;DHT22;5875;35.940;126.892;2023-02-11T00:06:06;3.60;99.90
11639;DHT22;5875;35.940;126.892;2023-02-11T00:08:37;3.70;99.90
11639;DHT22;5875;35.940;126.892;2023-02-11T00:11:04;3.70;99.90
11639;DHT22;5875;35.940;126.892;2023-02-11T00:13:32;3.80;99.90
11639;DHT22;5875;35.940;126.892;2023-02-11T00:15:59;3.80;99.90
11639;DHT22;5875;35.940;126.892;2023-02-11T00:18:31;3.90;99.90
11639;DHT22;5875;35.940;126.892;2023-02-11T00:20:58;3.90;99.90
11639;DHT22;5875;35.940;126.892;2023-02-11T00:23:25;4.00;99.90
11639;DHT22;5875;35.940;126.892;2023-02-11T00:25:52;4.10;99.90
11639;DHT22;5875;35.940;126.892;2023-02-11T00:28:20;4.10;99.90
11639;DHT22;5875;35.940;126.892;2023-02-11T00:30:54;4.20;99.90
11639;DHT22;5875;35.940;126.892;2023-02-11T00:33:21;4.30;99.90
11639;DHT22;5875;35.940;126.892;2023-02-11T00:35:49;4.30;99.90
11639;DHT22;5875;35.940;126.892;2023-02-11T00:38:16;4.30;99.90
11639;DHT22;5875;35.940;126.892;2023-02-11T00:40:43;4.40;99.90
11639;DHT22;5875;35.940;126.892;2023-02-11T00:43:10;3.80;99.90
11639;DHT22;5875;35.940;126.892;2023-02-11T00:45:37;4.00;99.90
11639;DHT22;5875;35.940;126.892;2023-02-11T00:48:04;4.10;99.90
11639;DHT22;5875;35.940;126.892;2023-02-11T00:50:31;4.10;99.90
11639;DHT22;5875;35.940;126.892;2023-02-11T00:52:58;3.90;99.90
11639;DHT22;5875;35.940;126.892;2023-02-11T00:55:26;4.00;99.90
11639;DHT22;5875;35.940;126.892;2023-02-11T00:57:53;3.20;99.90
11639;DHT22;5875;35.940;126.892;2023-02-11T01:00:20;3.10;99.90
11639;DHT22;5875;35.940;126.892;2023-02-11T01:02:47;3.10;99.90
11639;DHT22;5875;35.940;126.892;2023-02-11T01:05:14;3.10;99.90
11639;DHT22;5875;35.940;126.892;2023-02-11T01:07:41;3.10;99.90
11639;DHT22;5875;35.940;126.892;2023-02-11T01:10:09;2.90;99.90
11639;DHT22;5875;35.940;126.892;2023-02-11T01:12:36;2.60;99.90
11639;DHT22;5875;35.940;126.892;2023-02-11T01:15:04;2.20;99.90
11639;DHT22;5875;35.940;126.892;2023-02-11T01:17:32;2.10;99.90
11639;DHT22;5875;35.940;126.892;2023-02-11T01:20:04;2.30;99.90
11639;DHT22;5875;35.940;126.892;2023-02-11T01:22:32;2.30;99.90
11639;DHT22;5875;35.940;126.892;2023-02-11T01:25:03;2.20;99.90
11639;DHT22;5875;35.940;126.892;2023-02-11T01:27:30;2.30;99.90
11639;DHT22;5875;35.940;126.892;2023-02-11T01:29:57;2.20;99.90
11639;DHT22;5875;35.940;126.892;2023-02-11T01:32:24;2.30;99.90
11639;DHT22;5875;35.940;126.892;2023-02-11T01:34:52;2.10;99.90
11639;DHT22;5875;35.940;126.892;2023-02-11T01:37:19;1.90;99.90
11639;DHT22;5875;35.940;126.892;2023-02-11T01:39:46;2.00;99.90
11639;DHT22;5875;35.940;126.892;2023-02-11T01:42:18;2.10;99.90
11639;DHT22;5875;35.940;126.892;2023-02-11T01:44:49;2.00;99.90
11639;DHT22;5875;35.940;126.892;2023-02-11T01:47:18;2.20;99.90
11639;DHT22;5875;35.940;126.892;2023-02-11T01:49:56;2.50;99.90
11639;DHT22;5875;35.940;126.892;2023-02-11T01:52:35;2.60;99.90
11639;DHT22;5875;35.940;126.892;2023-02-11T01:55:06;2.80;99.90
11639;DHT22;5875;35.940;126.892;2023-02-11T01:57:54;3.20;99.90
11639;DHT22;5875;35.940;126.892;2023-02-11T02:00:37;3.10;99.90
11639;DHT22;5875;35.940;126.892;2023-02-11T02:08:43;3.90;99.90
11639;DHT22;5875;35.940;126.892;2023-02-11T02:11:12;4.10;99.90
11639;DHT22;5875;35.940;126.892;2023-02-11T02:13:39;4.40;99.90
11639;DHT22;5875;35.940;126.892;2023-02-11T02:16:11;4.70;99.90
11639;DHT22;5875;35.940;126.892;2023-02-11T02:24:37;5.10;99.90
11639;DHT22;5875;35.940;126.892;2023-02-11T02:27:25;4.90;99.90
11639;DHT22;5875;35.940;126.892;2023-02-11T02:38:31;6.00;99.90
11639;DHT22;5875;35.940;126.892;2023-02-11T02:41:03;7.10;99.90
11639;DHT22;5875;35.940;126.892;2023-02-11T02:43:33;7.10;99.90
11639;DHT22;5875;35.940;126.892;2023-02-11T02:46:34;7.80;99.90
11639;DHT22;5875;35.940;126.892;2023-02-11T02:49:02;7.80;99.90
11639;DHT22;5875;35.940;126.892;2023-02-11T02:54:43;8.50;99.90
11639;DHT22;5875;35.940;126.892;2023-02-11T03:04:07;10.50;99.90
11639;DHT22;5875;35.940;126.892;2023-02-11T03:06:11;10.80;99.90
11639;DHT22;5875;35.940;126.892;2023-02-11T03:08:50;11.30;99.90
11639;DHT22;5875;35.940;126.892;2023-02-11T03:11:20;11.40;99.90
11639;DHT22;5875;35.940;126.892;2023-02-11T03:13:48;11.90;99.90
11639;DHT22;5875;35.940;126.892;2023-02-11T03:16:24;12.60;99.90
11639;DHT22;5875;35.940;126.892;2023-02-11T03:19:14;12.80;99.90
11639;DHT22;5875;35.940;126.892;2023-02-11T03:21:42;13.00;99.90
11639;DHT22;5875;35.940;126.892;2023-02-11T03:24:19;13.30;99.90
11639;DHT22;5875;35.940;126.892;2023-02-11T03:26:51;12.90;99.90
11639;DHT22;5875;35.940;126.892;2023-02-11T03:29:33;13.00;99.90
11639;DHT22;5875;35.940;126.892;2023-02-11T03:32:16;13.50;99.90
11639;DHT22;5875;35.940;126.892;2023-02-11T03:37:23;13.90;99.90
11639;DHT22;5875;35.940;126.892;2023-02-11T03:42:34;14.00;99.90
11639;DHT22;5875;35.940;126.892;2023-02-11T03:45:08;14.10;99.90
11639;DHT22;5875;35.940;126.892;2023-02-11T03:47:38;14.20;99.90
11639;DHT22;5875;35.940;126.892;2023-02-11T03:50:09;14.50;99.90
11639;DHT22;5875;35.940;126.892;2023-02-11T03:52:37;14.60;99.90
11639;DHT22;5875;35.940;126.892;2023-02-11T03:55:11;14.70;99.90
11639;DHT22;5875;35.940;126.892;2023-02-11T03:57:39;14.10;99.90
11639;DHT22;5875;35.940;126.892;2023-02-11T04:00:06;14.10;99.90
11639;DHT22;5875;35.940;126.892;2023-02-11T04:02:36;13.90;99.90
11639;DHT22;5875;35.940;126.892;2023-02-11T04:05:04;13.90;99.90
11639;DHT22;5875;35.940;126.892;2023-02-11T04:07:32;13.60;99.90
11639;DHT22;5875;35.940;126.892;2023-02-11T04:09:59;13.70;99.90
11639;DHT22;5875;35.940;126.892;2023-02-11T04:12:27;13.80;99.90
11639;DHT22;5875;35.940;126.892;2023-02-11T04:14:54;13.80;99.90
11639;DHT22;5875;35.940;126.892;2023-02-11T04:17:21;13.80;99.90
11639;DHT22;5875;35.940;126.892;2023-02-11T04:19:48;13.90;99.90
11639;DHT22;5875;35.940;126.892;2023-02-11T04:22:15;13.80;99.90
11639;DHT22;5875;35.940;126.892;2023-02-11T04:24:43;13.90;99.90
11639;DHT22;5875;35.940;126.892;2023-02-11T04:27:10;13.70;99.90
11639;DHT22;5875;35.940;126.892;2023-02-11T04:29:37;14.00;99.90
11639;DHT22;5875;35.940;126.892;2023-02-11T04:32:04;14.10;99.90
11639;DHT22;5875;35.940;126.892;2023-02-11T04:34:31;14.10;99.90
11639;DHT22;5875;35.940;126.892;2023-02-11T04:36:58;14.10;99.90
11639;DHT22;5875;35.940;126.892;2023-02-11T04:39:26;14.00;99.90
11639;DHT22;5875;35.940;126.892;2023-02-11T04:41:53;13.90;99.90
11639;DHT22;5875;35.940;126.892;2023-02-11T04:44:20;13.80;99.90
11639;DHT22;5875;35.940;126.892;2023-02-11T04:46:47;13.70;99.90
11639;DHT22;5875;35.940;126.892;2023-02-11T04:49:15;13.60;99.90
11639;DHT22;5875;35.940;126.892;2023-02-11T04:51:43;13.40;99.90
11639;DHT22;5875;35.940;126.892;2023-02-11T04:54:13;13.00;99.90
11639;DHT22;5875;35.940;126.892;2023-02-11T04:56:40;13.00;99.90
11639;DHT22;5875;35.940;126.892;2023-02-11T04:59:07;12.90;99.90
11639;DHT22;5875;35.940;126.892;2023-02-11T05:01:34;12.80;99.90
11639;DHT22;5875;35.940;126.892;2023-02-11T05:04:01;12.70;99.90
11639;DHT22;5875;35.940;126.892;2023-02-11T05:06:29;12.60;99.90
11639;DHT22;5875;35.940;126.892;2023-02-11T05:08:56;12.50;99.90
11639;DHT22;5875;35.940;126.892;2023-02-11T05:11:24;12.40;99.90
11639;DHT22;5875;35.940;126.892;2023-02-11T05:13:52;12.40;99.90
11639;DHT22;5875;35.940;126.892;2023-02-11T05:16:19;12.20;99.90
11639;DHT22;5875;35.940;126.892;2023-02-11T05:18:46;12.20;99.90
11639;DHT22;5875;35.940;126.892;2023-02-11T05:21:17;12.10;99.90
11639;DHT22;5875;35.940;126.892;2023-02-11T05:23:45;12.00;99.90
11639;DHT22;5875;35.940;126.892;2023-02-11T05:26:13;11.90;99.90
11639;DHT22;5875;35.940;126.892;2023-02-11T05:28:41;11.80;99.90
11639;DHT22;5875;35.940;126.892;2023-02-11T05:31:08;11.80;99.90
11639;DHT22;5875;35.940;126.892;2023-02-11T05:33:35;11.70;99.90
11639;DHT22;5875;35.940;126.892;2023-02-11T05:36:05;11.60;99.90
11639;DHT22;5875;35.940;126.892;2023-02-11T05:38:34;11.50;99.90
11639;DHT22;5875;35.940;126.892;2023-02-11T05:41:02;11.50;99.90
11639;DHT22;5875;35.940;126.892;2023-02-11T05:43:30;11.40;99.90
11639;DHT22;5875;35.940;126.892;2023-02-11T05:45:57;11.30;99.90
11639;DHT22;5875;35.940;126.892;2023-02-11T05:48:24;11.30;99.90
11639;DHT22;5875;35.940;126.892;2023-02-11T05:50:52;11.20;99.90
11639;DHT22;5875;35.940;126.892;2023-02-11T05:53:19;11.20;99.90
11639;DHT22;5875;35.940;126.892;2023-02-11T05:55:46;11.00;99.90
11639;DHT22;5875;35.940;126.892;2023-02-11T05:58:13;11.00;99.90
11639;DHT22;5875;35.940;126.892;2023-02-11T06:00:40;11.00;99.90
11639;DHT22;5875;35.940;126.892;2023-02-11T06:03:07;10.90;99.90
11639;DHT22;5875;35.940;126.892;2023-02-11T06:05:34;10.90;99.90
11639;DHT22;5875;35.940;126.892;2023-02-11T06:08:02;10.80;99.90
11639;DHT22;5875;35.940;126.892;2023-02-11T06:10:29;10.80;99.90
11639;DHT22;5875;35.940;126.892;2023-02-11T06:12:56;10.70;99.90
11639;DHT22;5875;35.940;126.892;2023-02-11T06:15:23;10.80;99.90
11639;DHT22;5875;35.940;126.892;2023-02-11T06:17:50;10.80;99.90
11639;DHT22;5875;35.940;126.892;2023-02-11T06:20:18;10.80;99.90
11639;DHT22;5875;35.940;126.892;2023-02-11T06:22:45;10.90;99.90
11639;DHT22;5875;35.940;126.892;2023-02-11T06:25:13;10.90;99.90
11639;DHT22;5875;35.940;126.892;2023-02-11T06:27:41;10.90;99.90
11639;DHT22;5875;35.940;126.892;2023-02-11T06:30:08;10.90;99.90
11639;DHT22;5875;35.940;126.892;2023-02-11T06:32:36;10.90;99.90
11639;DHT22;5875;35.940;126.892;2023-02-11T06:35:03;11.00;99.90
11639;DHT22;5875;35.940;126.892;2023-02-11T06:37:30;11.10;99.90
11639;DHT22;5875;35.940;126.892;2023-02-11T06:39:57;11.10;99.90
11639;DHT22;5875;35.940;126.892;2023-02-11T06:42:24;11.20;99.90
11639;DHT22;5875;35.940;126.892;2023-02-11T06:44:52;11.30;99.90
11639;DHT22;5875;35.940;126.892;2023-02-11T06:47:19;11.30;99.90
11639;DHT22;5875;35.940;126.892;2023-02-11T06:49:46;11.30;99.90
11639;DHT22;5875;35.940;126.892;2023-02-11T06:52:13;11.30;99.90
11639;DHT22;5875;35.940;126.892;2023-02-11T06:54:40;11.20;99.90
11639;DHT22;5875;35.940;126.892;2023-02-11T06:57:07;11.20;99.90
11639;DHT22;5875;35.940;126.892;2023-02-11T06:59:34;11.20;99.90
11639;DHT22;5875;35.940;126.892;2023-02-11T07:02:01;11.20;99.90
11639;DHT22;5875;35.940;126.892;2023-02-11T07:04:29;11.20;99.90
11639;DHT22;5875;35.940;126.892;2023-02-11T07:06:56;11.20;99.90
11639;DHT22;5875;35.940;126.892;2023-02-11T07:09:23;11.20;99.90
11639;DHT22;5875;35.940;126.892;2023-02-11T07:11:50;11.20;99.90
11639;DHT22;5875;35.940;126.892;2023-02-11T07:14:17;11.20;99.90
11639;DHT22;5875;35.940;126.892;2023-02-11T07:16:44;11.20;99.90
11639;DHT22;5875;35.940;126.892;2023-02-11T07:19:12;11.10;99.90
11639;DHT22;5875;35.940;126.892;2023-02-11T07:21:39;11.10;99.90
11639;DHT22;5875;35.940;126.892;2023-02-11T07:24:14;11.10;99.90
11639;DHT22;5875;35.940;126.892;2023-02-11T07:26:42;11.10;99.90
11639;DHT22;5875;35.940;126.892;2023-02-11T07:29:10;11.00;99.90
11639;DHT22;5875;35.940;126.892;2023-02-11T07:31:37;11.10;99.90
11639;DHT22;5875;35.940;126.892;2023-02-11T07:34:04;11.10;99.90
11639;DHT22;5875;35.940;126.892;2023-02-11T07:36:31;11.10;99.90
11639;DHT22;5875;35.940;126.892;2023-02-11T07:38:59;11.10;99.90
11639;DHT22;5875;35.940;126.892;2023-02-11T07:41:27;11.10;99.90
11639;DHT22;5875;35.940;126.892;2023-02-11T07:43:54;11.10;99.90
11639;DHT22;5875;35.940;126.892;2023-02-11T07:46:26;11.10;99.90
11639;DHT22;5875;35.940;126.892;2023-02-11T07:48:53;11.00;99.90
11639;DHT22;5875;35.940;126.892;2023-02-11T07:51:26;11.00;99.90
11639;DHT22;5875;35.940;126.892;2023-02-11T07:53:55;11.00;99.90
11639;DHT22;5875;35.940;126.892;2023-02-11T07:56:23;10.90;99.90
11639;DHT22;5875;35.940;126.892;2023-02-11T07:58:51;10.90;99.90
11639;DHT22;5875;35.940;126.892;2023-02-11T08:01:20;10.90;99.90
11639;DHT22;5875;35.940;126.892;2023-02-11T08:03:54;10.80;99.90
11639;DHT22;5875;35.940;126.892;2023-02-11T08:06:24;10.80;99.90
11639;DHT22;5875;35.940;126.892;2023-02-11T08:08:51;10.80;99.90
11639;DHT22;5875;35.940;126.892;2023-02-11T08:11:22;10.80;99.90
11639;DHT22;5875;35.940;126.892;2023-02-11T08:13:50;10.80;99.90
11639;DHT22;5875;35.940;126.892;2023-02-11T08:16:23;10.70;99.90
11639;DHT22;5875;35.940;126.892;2023-02-11T08:18:51;10.60;99.90
11639;DHT22;5875;35.940;126.892;2023-02-11T08:21:19;10.60;99.90
11639;DHT22;5875;35.940;126.892;2023-02-11T08:23:46;10.60;99.90
11639;DHT22;5875;35.940;126.892;2023-02-11T08:26:18;10.60;99.90
11639;DHT22;5875;35.940;126.892;2023-02-11T08:28:46;10.50;99.90
11639;DHT22;5875;35.940;126.892;2023-02-11T08:31:29;10.50;99.90
11639;DHT22;5875;35.940;126.892;2023-02-11T08:33:56;10.40;99.90
11639;DHT22;5875;35.940;126.892;2023-02-11T08:36:26;10.30;99.90
11639;DHT22;5875;35.940;126.892;2023-02-11T08:38:58;10.30;99.90
11639;DHT22;5875;35.940;126.892;2023-02-11T08:41:27;10.20;99.90
11639;DHT22;5875;35.940;126.892;2023-02-11T08:43:55;10.10;99.90
11639;DHT22;5875;35.940;126.892;2023-02-11T08:46:22;10.10;99.90
11639;DHT22;5875;35.940;126.892;2023-02-11T08:48:49;10.00;99.90
11639;DHT22;5875;35.940;126.892;2023-02-11T08:51:20;10.00;99.90
11639;DHT22;5875;35.940;126.892;2023-02-11T08:53:49;9.80;99.90
11639;DHT22;5875;35.940;126.892;2023-02-11T08:56:18;9.70;99.90
11639;DHT22;5875;35.940;126.892;2023-02-11T08:58:45;9.70;99.90
11639;DHT22;5875;35.940;126.892;2023-02-11T09:01:18;9.60;99.90
11639;DHT22;5875;35.940;126.892;2023-02-11T09:03:46;9.50;99.90
11639;DHT22;5875;35.940;126.892;2023-02-11T09:06:13;9.40;99.90
11639;DHT22;5875;35.940;126.892;2023-02-11T09:08:44;9.30;99.90
11639;DHT22;5875;35.940;126.892;2023-02-11T09:11:12;9.30;99.90
11639;DHT22;5875;35.940;126.892;2023-02-11T09:13:41;9.20;99.90
11639;DHT22;5875;35.940;126.892;2023-02-11T09:16:19;9.10;99.90
11639;DHT22;5875;35.940;126.892;2023-02-11T09:18:47;9.00;99.90
11639;DHT22;5875;35.940;126.892;2023-02-11T09:21:16;8.90;99.90
11639;DHT22;5875;35.940;126.892;2023-02-11T09:23:44;8.80;99.90
11639;DHT22;5875;35.940;126.892;2023-02-11T09:26:21;8.70;99.90
11639;DHT22;5875;35.940;126.892;2023-02-11T09:28:48;8.60;99.90
11639;DHT22;5875;35.940;126.892;2023-02-11T09:31:20;8.50;99.90
11639;DHT22;5875;35.940;126.892;2023-02-11T09:33:50;8.40;99.90
11639;DHT22;5875;35.940;126.892;2023-02-11T09:36:20;8.40;99.90
11639;DHT22;5875;35.940;126.892;2023-02-11T09:38:48;8.40;99.90
11639;DHT22;5875;35.940;126.892;2023-02-11T09:41:53;8.30;99.90
11639;DHT22;5875;35.940;126.892;2023-02-11T09:44:31;8.30;99.90
11639;DHT22;5875;35.940;126.892;2023-02-11T09:47:14;8.10;99.90
11639;DHT22;5875;35.940;126.892;2023-02-11T09:49:51;8.00;99.90
11639;DHT22;5875;35.940;126.892;2023-02-11T09:57:44;7.80;99.90
11639;DHT22;5875;35.940;126.892;2023-02-11T10:08:31;7.60;99.90
11639;DHT22;5875;35.940;126.892;2023-02-11T10:19:48;7.40;99.90
11639;DHT22;5875;35.940;126.892;2023-02-11T10:22:27;7.30;99.90
11639;DHT22;5875;35.940;126.892;2023-02-11T10:24:58;7.30;99.90
11639;DHT22;5875;35.940;126.892;2023-02-11T10:27:32;7.20;99.90
11639;DHT22;5875;35.940;126.892;2023-02-11T10:32:39;7.10;99.90
11639;DHT22;5875;35.940;126.892;2023-02-11T10:35:20;7.10;99.90
11639;DHT22;5875;35.940;126.892;2023-02-11T10:37:48;7.00;99.90
11639;DHT22;5875;35.940;126.892;2023-02-11T10:40:18;6.90;99.90
11639;DHT22;5875;35.940;126.892;2023-02-11T10:42:49;6.90;99.90
11639;DHT22;5875;35.940;126.892;2023-02-11T10:45:32;6.90;99.90
11639;DHT22;5875;35.940;126.892;2023-02-11T10:48:01;6.80;99.90
11639;DHT22;5875;35.940;126.892;2023-02-11T10:50:31;6.80;99.90
11639;DHT22;5875;35.940;126.892;2023-02-11T10:53:20;6.70;99.90
11639;DHT22;5875;35.940;126.892;2023-02-11T10:55:56;6.70;99.90
11639;DHT22;5875;35.940;126.892;2023-02-11T10:58:45;6.60;99.90
11639;DHT22;5875;35.940;126.892;2023-02-11T11:01:13;6.60;99.90
11639;DHT22;5875;35.940;126.892;2023-02-11T11:03:51;6.60;99.90
11639;DHT22;5875;35.940;126.892;2023-02-11T11:06:32;6.50;99.90
11639;DHT22;5875;35.940;126.892;2023-02-11T11:08:59;6.40;99.90
11639;DHT22;5875;35.940;126.892;2023-02-11T11:11:27;6.40;99.90
11639;DHT22;5875;35.940;126.892;2023-02-11T11:13:59;6.40;99.90
11639;DHT22;5875;35.940;126.892;2023-02-11T11:16:34;6.40;99.90
11639;DHT22;5875;35.940;126.892;2023-02-11T11:21:47;6.30;99.90
11639;DHT22;5875;35.940;126.892;2023-02-11T11:24:31;6.30;99.90
11639;DHT22;5875;35.940;126.892;2023-02-11T11:27:02;6.20;99.90
11639;DHT22;5875;35.940;126.892;2023-02-11T11:29:45;6.20;99.90
11639;DHT22;5875;35.940;126.892;2023-02-11T11:32:22;6.20;99.90
11639;DHT22;5875;35.940;126.892;2023-02-11T11:34:55;6.10;99.90
11639;DHT22;5875;35.940;126.892;2023-02-11T11:37:33;6.10;99.90
11639;DHT22;5875;35.940;126.892;2023-02-11T11:40:10;6.10;99.90
11639;DHT22;5875;35.940;126.892;2023-02-11T11:46:12;6.00;99.90
11639;DHT22;5875;35.940;126.892;2023-02-11T11:48:49;6.00;99.90
11639;DHT22;5875;35.940;126.892;2023-02-11T11:51:17;5.80;99.90
11639;DHT22;5875;35.940;126.892;2023-02-11T11:56:27;5.80;99.90
11639;DHT22;5875;35.940;126.892;2023-02-11T11:58:57;5.80;99.90
11639;DHT22;5875;35.940;126.892;2023-02-11T12:05:07;5.70;99.90
11639;DHT22;5875;35.940;126.892;2023-02-11T12:13:25;5.70;99.90
11639;DHT22;5875;35.940;126.892;2023-02-11T12:16:18;5.60;99.90
11639;DHT22;5875;35.940;126.892;2023-02-11T12:22:08;5.60;99.90
11639;DHT22;5875;35.940;126.892;2023-02-11T12:25:04;5.50;99.90
11639;DHT22;5875;35.940;126.892;2023-02-11T12:27:46;5.50;99.90
11639;DHT22;5875;35.940;126.892;2023-02-11T12:33:01;5.50;99.90
11639;DHT22;5875;35.940;126.892;2023-02-11T12:38:26;5.40;99.90
11639;DHT22;5875;35.940;126.892;2023-02-11T12:43:43;5.30;99.90
11639;DHT22;5875;35.940;126.892;2023-02-11T12:54:55;5.20;99.90
11639;DHT22;5875;35.940;126.892;2023-02-11T12:57:35;5.20;99.90
11639;DHT22;5875;35.940;126.892;2023-02-11T13:02:54;5.10;99.90
11639;DHT22;5875;35.940;126.892;2023-02-11T13:07:57;5.10;99.90
11639;DHT22;5875;35.940;126.892;2023-02-11T13:10:40;5.10;99.90
11639;DHT22;5875;35.940;126.892;2023-02-11T13:13:27;5.10;99.90
11639;DHT22;5875;35.940;126.892;2023-02-11T13:16:03;5.10;99.90
11639;DHT22;5875;35.940;126.892;2023-02-11T13:21:30;5.10;99.90
11639;DHT22;5875;35.940;126.892;2023-02-11T13:26:56;5.00;99.90
11639;DHT22;5875;35.940;126.892;2023-02-11T13:29:41;5.00;99.90
11639;DHT22;5875;35.940;126.892;2023-02-11T13:32:15;5.00;99.90
11639;DHT22;5875;35.940;126.892;2023-02-11T13:37:35;4.90;99.90
11639;DHT22;5875;35.940;126.892;2023-02-11T13:40:21;4.90;99.90
11639;DHT22;5875;35.940;126.892;2023-02-11T13:42:55;4.50;99.90
11639;DHT22;5875;35.940;126.892;2023-02-11T13:45:39;4.60;99.90
11639;DHT22;5875;35.940;126.892;2023-02-11T13:48:32;4.60;99.90
11639;DHT22;5875;35.940;126.892;2023-02-11T13:51:05;4.60;99.90
11639;DHT22;5875;35.940;126.892;2023-02-11T13:53:50;4.60;99.90
11639;DHT22;5875;35.940;126.892;2023-02-11T13:56:31;4.50;99.90
11639;DHT22;5875;35.940;126.892;2023-02-11T13:59:04;4.50;99.90
11639;DHT22;5875;35.940;126.892;2023-02-11T14:01:38;4.50;99.90
11639;DHT22;5875;35.940;126.892;2023-02-11T14:04:26;4.50;99.90
11639;DHT22;5875;35.940;126.892;2023-02-11T14:08:01;4.50;99.90
11639;DHT22;5875;35.940;126.892;2023-02-11T14:13:32;4.50;99.90
11639;DHT22;5875;35.940;126.892;2023-02-11T14:16:14;4.40;99.90
11639;DHT22;5875;35.940;126.892;2023-02-11T14:35:34;4.40;99.90
11639;DHT22;5875;35.940;126.892;2023-02-11T14:41:24;4.30;99.90
11639;DHT22;5875;35.940;126.892;2023-02-11T14:43:57;4.40;99.90
11639;DHT22;5875;35.940;126.892;2023-02-11T14:46:25;4.30;99.90
11639;DHT22;5875;35.940;126.892;2023-02-11T14:48:59;4.20;99.90
11639;DHT22;5875;35.940;126.892;2023-02-11T14:51:45;4.20;99.90
11639;DHT22;5875;35.940;126.892;2023-02-11T14:54:22;4.20;99.90
11639;DHT22;5875;35.940;126.892;2023-02-11T14:57:07;4.20;99.90
11639;DHT22;5875;35.940;126.892;2023-02-11T14:59:34;4.20;99.90
11639;DHT22;5875;35.940;126.892;2023-02-11T15:02:02;4.20;99.90
11639;DHT22;5875;35.940;126.892;2023-02-11T15:04:33;4.10;99.90
11639;DHT22;5875;35.940;126.892;2023-02-11T15:07:06;4.00;99.90
11639;DHT22;5875;35.940;126.892;2023-02-11T15:09:41;4.00;99.90
11639;DHT22;5875;35.940;126.892;2023-02-11T15:12:37;4.00;99.90
11639;DHT22;5875;35.940;126.892;2023-02-11T15:15:10;4.00;99.90
11639;DHT22;5875;35.940;126.892;2023-02-11T15:17:38;4.00;99.90
11639;DHT22;5875;35.940;126.892;2023-02-11T15:20:23;4.00;99.90
11639;DHT22;5875;35.940;126.892;2023-02-11T15:22:56;3.90;99.90
11639;DHT22;5875;35.940;126.892;2023-02-11T15:25:24;3.90;99.90
11639;DHT22;5875;35.940;126.892;2023-02-11T15:27:55;3.80;99.90
11639;DHT22;5875;35.940;126.892;2023-02-11T15:30:26;3.80;99.90
11639;DHT22;5875;35.940;126.892;2023-02-11T15:32:56;3.80;99.90
11639;DHT22;5875;35.940;126.892;2023-02-11T15:35:27;3.70;99.90
11639;DHT22;5875;35.940;126.892;2023-02-11T15:37:56;3.70;99.90
11639;DHT22;5875;35.940;126.892;2023-02-11T15:40:29;3.70;99.90
11639;DHT22;5875;35.940;126.892;2023-02-11T15:43:00;3.70;99.90
11639;DHT22;5875;35.940;126.892;2023-02-11T15:48:11;3.80;99.90
11639;DHT22;5875;35.940;126.892;2023-02-11T15:50:41;3.70;99.90
11639;DHT22;5875;35.940;126.892;2023-02-11T15:53:22;3.70;99.90
11639;DHT22;5875;35.940;126.892;2023-02-11T15:55:53;3.70;99.90
11639;DHT22;5875;35.940;126.892;2023-02-11T15:58:23;3.60;99.90
11639;DHT22;5875;35.940;126.892;2023-02-11T16:00:51;3.60;99.90
11639;DHT22;5875;35.940;126.892;2023-02-11T16:03:27;3.60;99.90
11639;DHT22;5875;35.940;126.892;2023-02-11T16:06:19;3.60;99.90
11639;DHT22;5875;35.940;126.892;2023-02-11T16:19:48;3.40;99.90
11639;DHT22;5875;35.940;126.892;2023-02-11T16:22:24;3.40;99.90
11639;DHT22;5875;35.940;126.892;2023-02-11T16:24:55;3.40;99.90
11639;DHT22;5875;35.940;126.892;2023-02-11T16:27:37;3.40;99.90
11639;DHT22;5875;35.940;126.892;2023-02-11T16:30:20;3.30;99.90
11639;DHT22;5875;35.940;126.892;2023-02-11T16:32:48;3.30;99.90
11639;DHT22;5875;35.940;126.892;2023-02-11T16:35:16;3.20;99.90
11639;DHT22;5875;35.940;126.892;2023-02-11T16:37:43;3.20;99.90
11639;DHT22;5875;35.940;126.892;2023-02-11T16:40:11;3.20;99.90
11639;DHT22;5875;35.940;126.892;2023-02-11T16:42:39;3.20;99.90
11639;DHT22;5875;35.940;126.892;2023-02-11T16:45:07;3.20;99.90
11639;DHT22;5875;35.940;126.892;2023-02-11T16:47:35;3.20;99.90
11639;DHT22;5875;35.940;126.892;2023-02-11T16:50:09;3.20;99.90
11639;DHT22;5875;35.940;126.892;2023-02-11T16:52:36;3.20;99.90
11639;DHT22;5875;35.940;126.892;2023-02-11T16:55:04;3.20;99.90
11639;DHT22;5875;35.940;126.892;2023-02-11T16:57:32;3.20;99.90
11639;DHT22;5875;35.940;126.892;2023-02-11T16:59:59;3.20;99.90
11639;DHT22;5875;35.940;126.892;2023-02-11T17:02:32;3.20;99.90
11639;DHT22;5875;35.940;126.892;2023-02-11T17:05:02;3.20;99.90
11639;DHT22;5875;35.940;126.892;2023-02-11T17:07:30;3.20;99.90
11639;DHT22;5875;35.940;126.892;2023-02-11T17:09:57;3.10;99.90
11639;DHT22;5875;35.940;126.892;2023-02-11T17:12:25;3.10;99.90
11639;DHT22;5875;35.940;126.892;2023-02-11T17:14:53;3.20;99.90
11639;DHT22;5875;35.940;126.892;2023-02-11T17:17:20;3.20;99.90
11639;DHT22;5875;35.940;126.892;2023-02-11T17:19:49;3.10;99.90
11639;DHT22;5875;35.940;126.892;2023-02-11T17:22:16;3.10;99.90
11639;DHT22;5875;35.940;126.892;2023-02-11T17:24:44;3.10;99.90
11639;DHT22;5875;35.940;126.892;2023-02-11T17:27:11;3.10;99.90
11639;DHT22;5875;35.940;126.892;2023-02-11T17:29:39;3.10;99.90
11639;DHT22;5875;35.940;126.892;2023-02-11T17:32:06;3.10;99.90
11639;DHT22;5875;35.940;126.892;2023-02-11T17:34:33;3.10;99.90
11639;DHT22;5875;35.940;126.892;2023-02-11T17:37:00;3.00;99.90
11639;DHT22;5875;35.940;126.892;2023-02-11T17:39:35;3.10;99.90
11639;DHT22;5875;35.940;126.892;2023-02-11T17:42:03;3.00;99.90
11639;DHT22;5875;35.940;126.892;2023-02-11T17:44:32;3.00;99.90
11639;DHT22;5875;35.940;126.892;2023-02-11T17:46:59;2.90;99.90
11639;DHT22;5875;35.940;126.892;2023-02-11T17:49:26;3.00;99.90
11639;DHT22;5875;35.940;126.892;2023-02-11T17:51:53;3.00;99.90
11639;DHT22;5875;35.940;126.892;2023-02-11T17:54:20;3.00;99.90
11639;DHT22;5875;35.940;126.892;2023-02-11T17:56:48;3.00;99.90
11639;DHT22;5875;35.940;126.892;2023-02-11T17:59:16;3.00;99.90
11639;DHT22;5875;35.940;126.892;2023-02-11T18:01:43;2.90;99.90
11639;DHT22;5875;35.940;126.892;2023-02-11T18:04:14;2.90;99.90
11639;DHT22;5875;35.940;126.892;2023-02-11T18:06:46;3.00;99.90
11639;DHT22;5875;35.940;126.892;2023-02-11T18:09:13;2.90;99.90
11639;DHT22;5875;35.940;126.892;2023-02-11T18:11:41;2.90;99.90
11639;DHT22;5875;35.940;126.892;2023-02-11T18:14:09;2.90;99.90
11639;DHT22;5875;35.940;126.892;2023-02-11T18:16:36;2.90;99.90
11639;DHT22;5875;35.940;126.892;2023-02-11T18:19:06;2.90;99.90